createdAt,value
2018-07-23T00:04:34.337Z,99815.30
2018-07-23T00:07:21.051Z,99817.45
2018-07-23T00:10:06.278Z,99825.67
2018-07-23T00:13:14.401Z,99831.61
2018-07-23T00:16:02.755Z,99837.16
2018-07-23T00:19:00.621Z,99849.84
2018-07-23T00:21:46.052Z,99850.77
2018-07-23T00:27:36.081Z,99858.48
2018-07-23T00:33:51.931Z,99862.48
2018-07-23T00:43:13.315Z,99882.99
2018-07-23T00:46:14.474Z,99892.93
2018-07-23T00:58:52.494Z,99886.73
2018-07-23T01:04:51.651Z,99900.28
2018-07-23T01:07:56.647Z,99903.03
2018-07-23T01:16:58.292Z,99916.12
2018-07-23T01:19:54.079Z,99914.97
2018-07-23T01:22:59.765Z,99918.33
2018-07-23T01:32:30.551Z,99913.62
2018-07-23T01:35:30.335Z,99918.48
2018-07-23T01:38:27.980Z,99922.63
2018-07-23T01:41:47.426Z,99924.48
2018-07-23T01:44:42.306Z,99924.34
2018-07-23T01:47:43.153Z,99928.78
2018-07-23T01:50:46.250Z,99925.83
2018-07-23T01:53:47.252Z,99932.60
2018-07-23T01:56:49.149Z,99935.97
2018-07-23T01:59:58.780Z,99940.09
2018-07-23T02:06:26.226Z,99937.21
2018-07-23T02:09:31.407Z,99936.52
2018-07-23T02:12:41.988Z,99951.50
2018-07-23T02:15:46.919Z,99947.39
2018-07-23T02:18:34.271Z,99959.94
2018-07-23T02:21:18.014Z,99966.05
2018-07-23T02:28:00.775Z,99971.77
2018-07-23T02:31:02.880Z,99972.88
2018-07-23T02:34:11.014Z,99972.56
2018-07-23T02:40:16.093Z,99986.46
2018-07-23T02:43:07.396Z,99987.37
2018-07-23T02:46:04.104Z,99981.42
2018-07-23T02:49:16.645Z,99984.55
2018-07-23T02:52:55.464Z,99987.52
2018-07-23T02:55:55.010Z,99993.11
2018-07-23T02:58:51.383Z,99991.92
2018-07-23T03:01:46.525Z,100005.75
2018-07-23T03:12:04.882Z,100004.95
2018-07-23T05:30:53.079Z,99987.83
2018-07-23T07:13:17.106Z,99901.33
2018-07-23T07:19:38.409Z,99890.80
2018-07-23T17:20:55.950Z,100119.01
2018-07-23T17:23:32.838Z,100123.09
2018-07-23T17:26:09.321Z,100123.18
2018-07-23T17:28:45.876Z,100119.59
2018-07-23T17:31:23.756Z,100116.15
2018-07-23T17:34:03.749Z,100122.63
2018-07-23T17:36:46.740Z,100121.83
2018-07-23T17:39:23.819Z,100119.16
2018-07-23T17:42:06.405Z,100115.80
2018-07-23T17:44:43.837Z,100121.25
2018-07-23T17:47:22.241Z,100114.38
2018-07-23T17:50:01.991Z,100118.39
2018-07-23T17:52:40.362Z,100110.16
2018-07-23T17:55:23.389Z,100103.98
2018-07-23T17:58:01.796Z,100104.72
2018-07-23T18:00:39.360Z,100100.81
2018-07-23T18:03:25.562Z,100097.60
2018-07-23T18:06:06.957Z,100095.27
2018-07-23T18:08:45.162Z,100091.77
2018-07-23T18:11:23.009Z,100090.26
2018-07-23T18:14:00.274Z,100086.70
2018-07-23T18:16:38.439Z,100080.81
2018-07-23T18:19:19.285Z,100076.49
2018-07-23T18:21:56.404Z,100077.59
2018-07-23T18:24:33.834Z,100080.34
2018-07-23T18:27:12.890Z,100078.88
2018-07-23T18:29:51.361Z,100077.37
2018-07-23T18:32:30.198Z,100068.38
2018-07-23T18:35:09.759Z,100073.80
2018-07-23T18:37:47.594Z,100066.38
2018-07-23T18:40:25.528Z,100065.53
2018-07-23T18:43:03.391Z,100058.48
2018-07-23T18:45:45.041Z,100050.87
2018-07-23T18:50:39.562Z,100055.13
2018-07-23T18:53:19.989Z,100047.31
2018-07-23T18:55:56.038Z,100046.49
2018-07-23T18:58:33.434Z,100039.44
2018-07-23T19:01:10.091Z,100037.02
2018-07-23T19:03:47.479Z,100037.32
2018-07-23T19:06:25.576Z,100027.35
2018-07-23T19:09:03.084Z,100023.48
2018-07-23T19:11:41.065Z,100027.65
2018-07-23T19:14:19.152Z,100029.48
2018-07-23T19:16:57.553Z,100022.58
2018-07-23T19:19:35.153Z,100021.77
2018-07-23T19:22:11.955Z,100016.78
2018-07-23T19:24:50.286Z,100013.89
2018-07-23T19:27:27.606Z,100010.07
2018-07-23T19:30:05.697Z,100013.45
2018-07-23T19:32:43.112Z,100009.20
2018-07-23T19:35:21.771Z,100010.69
2018-07-23T19:37:59.544Z,100010.74
2018-07-23T19:40:39.965Z,100014.00
2018-07-23T19:43:17.906Z,100017.30
2018-07-23T19:45:54.557Z,100014.19
2018-07-23T19:48:41.812Z,100013.05
2018-07-23T19:51:20.477Z,100012.84
2018-07-23T19:53:57.602Z,100011.41
2018-07-23T19:56:34.483Z,100011.94
2018-07-23T19:59:24.957Z,100004.80
2018-07-23T20:02:01.996Z,100003.17
2018-07-23T20:04:44.513Z,99999.58
2018-07-23T20:07:22.654Z,100000.02
2018-07-23T20:09:59.302Z,99990.28
2018-07-23T20:12:36.840Z,99988.52
2018-07-23T20:15:15.085Z,99987.81
2018-07-23T20:17:52.856Z,99991.69
2018-07-23T20:20:30.489Z,99995.50
2018-07-23T20:23:07.530Z,99994.22
2018-07-23T20:25:44.614Z,99998.24
2018-07-23T20:28:23.312Z,99996.75
2018-07-23T20:31:01.379Z,99997.05
2018-07-23T20:33:39.145Z,100001.07
2018-07-23T20:36:20.056Z,99995.50
2018-07-23T20:38:57.216Z,99998.02
2018-07-23T20:41:34.303Z,99989.77
2018-07-23T20:44:11.826Z,99982.69
2018-07-23T20:46:49.784Z,99983.64
2018-07-23T20:49:27.904Z,99985.42
2018-07-23T20:52:05.172Z,99982.36
2018-07-23T20:54:43.195Z,99986.96
2018-07-23T20:57:20.738Z,99976.80
2018-07-23T20:59:57.862Z,99978.05
2018-07-23T21:02:35.705Z,99979.01
2018-07-23T21:05:13.188Z,99973.53
2018-07-23T21:07:49.948Z,99976.27
2018-07-23T21:10:28.362Z,99976.36
2018-07-23T21:13:05.707Z,99970.67
2018-07-23T21:15:43.537Z,99969.25
2018-07-23T21:18:21.671Z,99967.47
2018-07-23T21:21:03.479Z,99969.34
2018-07-23T21:23:41.365Z,99966.98
2018-07-23T21:26:18.593Z,99960.86
2018-07-23T21:28:56.733Z,99960.86
2018-07-23T21:31:34.546Z,99959.61
2018-07-23T21:34:12.672Z,99959.31
2018-07-23T21:36:52.479Z,99958.70
2018-07-23T21:39:30.646Z,99964.21
2018-07-23T21:42:10.753Z,99970.77
2018-07-23T21:44:49.177Z,99975.25
2018-07-23T21:47:26.516Z,99984.85
2018-07-23T21:50:04.511Z,99974.06
2018-07-23T21:52:41.687Z,99965.44
2018-07-23T21:55:19.832Z,99962.08
2018-07-23T21:57:57.682Z,99975.38
2018-07-23T22:00:36.644Z,99972.08
2018-07-23T22:03:15.801Z,99971.27
2018-07-23T22:05:54.032Z,99983.27
2018-07-23T22:08:31.419Z,99992.70
2018-07-23T22:11:08.384Z,99993.20
2018-07-23T22:13:46.064Z,100003.09
2018-07-23T22:16:24.406Z,100002.99
2018-07-23T22:19:01.612Z,100008.86
2018-07-23T22:21:39.489Z,100001.92
2018-07-23T22:24:17.845Z,100000.16
2018-07-23T22:26:55.820Z,100001.50
2018-07-23T22:29:32.883Z,99991.66
2018-07-23T22:32:10.131Z,99992.73
2018-07-23T22:34:48.383Z,99990.39
2018-07-23T22:37:26.895Z,100002.55
2018-07-23T22:40:05.296Z,100003.17
2018-07-23T22:42:44.329Z,100001.54
2018-07-23T22:45:21.826Z,99984.80
2018-07-23T22:47:59.563Z,99981.08
2018-07-23T22:50:37.849Z,99970.91
2018-07-23T22:53:15.685Z,99977.19
2018-07-23T22:55:54.153Z,99986.91
2018-07-23T22:58:31.857Z,100005.03
2018-07-23T23:01:09.611Z,100010.86
2018-07-23T23:03:47.705Z,100027.57
2018-07-23T23:06:26.090Z,100031.84
2018-07-23T23:09:04.820Z,100040.86
2018-07-23T23:11:43.355Z,100034.73
2018-07-23T23:14:22.489Z,100039.38
2018-07-23T23:17:00.905Z,100037.05
2018-07-23T23:19:39.920Z,100031.28
2018-07-23T23:22:17.912Z,100035.78
2018-07-23T23:24:55.641Z,100034.25
2018-07-23T23:27:32.878Z,100030.39
2018-07-23T23:30:11.845Z,100032.10
2018-07-23T23:32:50.564Z,100027.35
2018-07-23T23:35:28.968Z,100023.60
2018-07-23T23:38:07.360Z,100043.24
2018-07-23T23:40:45.844Z,100052.60
2018-07-23T23:43:24.572Z,100053.26
2018-07-23T23:46:01.929Z,100049.48
2018-07-23T23:48:40.164Z,100042.31
2018-07-23T23:51:18.888Z,100044.43
2018-07-23T23:53:57.685Z,100045.69
2018-07-23T23:56:35.926Z,100049.70
2018-07-23T23:59:14.598Z,100056.58
